Time;durP1;ratioP1;P1;durP2;ratioP2;P2;SDS_P1;SDS_P2;PMS_P1;PMS_P2;Temp;Humidity;BMP_temperature;BMP_pressure;BME280_temperature;BME280_humidity;BME280_pressure;Samples;Min_cycle;Max_cycle;Signal;HPM_P1;HPM_P2
2022/08/16 00:00:37;;;;;;;12.87;11.50;;;21.40;99.90;;;;;;4878690;29;20514;-44
2022/08/16 00:03:03;;;;;;;12.77;11.40;;;21.30;99.90;;;;;;4878118;29;20445;-44
2022/08/16 00:05:30;;;;;;;12.90;11.30;;;21.20;99.90;;;;;;4879330;29;20555;-44
2022/08/16 00:07:57;;;;;;;13.80;11.40;;;21.20;99.90;;;;;;4881741;29;20458;-44
2022/08/16 00:10:27;;;;;;;13.97;11.63;;;21.10;99.90;;;;;;4878554;29;20956;-44
2022/08/16 00:12:52;;;;;;;13.57;12.17;;;21.10;99.90;;;;;;4861573;29;20453;-44
2022/08/16 00:15:30;;;;;;;14.40;12.30;;;21.00;99.90;;;;;;4877774;29;20476;-45
2022/08/16 00:17:55;;;;;;;14.37;12.87;;;21.00;99.90;;;;;;4878442;29;20200;-44
2022/08/16 00:20:22;;;;;;;14.47;12.10;;;21.00;99.90;;;;;;4881266;29;20498;-44
2022/08/16 00:22:49;;;;;;;14.33;12.73;;;21.00;99.90;;;;;;4882435;29;20175;-44
2022/08/16 00:25:17;;;;;;;15.03;12.70;;;21.00;99.90;;;;;;4877512;29;20459;-44
2022/08/16 00:27:42;;;;;;;26.03;14.57;;;20.90;99.90;;;;;;4897204;29;20448;-44
2022/08/16 00:30:12;;;;;;;16.40;12.90;;;20.80;1.00;;;;;;4890192;29;20846;-44
2022/08/16 00:32:39;;;;;;;16.30;14.00;;;20.80;1.00;;;;;;4891593;29;20642;-44
2022/08/16 00:35:07;;;;;;;14.57;13.07;;;20.70;1.00;;;;;;4899041;29;20461;-45
2022/08/16 00:37:33;;;;;;;15.47;13.30;;;20.60;1.00;;;;;;4897646;29;20946;-44
2022/08/16 00:39:59;;;;;;;17.10;13.57;;;20.70;1.00;;;;;;4897134;29;20420;-45
2022/08/16 00:42:29;;;;;;;17.40;13.90;;;20.60;1.00;;;;;;4900751;29;20280;-44
2022/08/16 00:45:17;;;;;;;16.30;14.60;;;20.60;1.00;;;;;;4897505;29;20255;-44
2022/08/16 00:47:44;;;;;;;17.80;14.80;;;20.60;1.00;;;;;;4879989;29;20428;-44
2022/08/16 00:50:11;;;;;;;19.23;16.07;;;20.60;1.00;;;;;;4895785;29;20437;-44
2022/08/16 00:52:37;;;;;;;19.73;16.23;;;20.50;1.00;;;;;;4892773;29;20439;-44
2022/08/16 00:55:03;;;;;;;18.77;16.77;;;20.40;1.00;;;;;;4890910;29;20994;-44
2022/08/16 00:57:30;;;;;;;20.60;16.40;;;20.50;14.70;;;;;;4892428;29;20452;-44
2022/08/16 00:59:55;;;;;;;20.60;16.50;;;20.40;73.60;;;;;;4893913;29;20531;-44
2022/08/16 01:02:21;;;;;;;26.70;18.27;;;20.40;99.90;;;;;;4892663;29;20451;-44
2022/08/16 01:04:47;;;;;;;16.90;13.80;;;20.40;99.90;;;;;;4896037;29;20257;-45
2022/08/16 01:07:12;;;;;;;20.00;17.10;;;20.30;99.90;;;;;;4896648;29;20234;-45
2022/08/16 01:09:38;;;;;;;18.97;16.50;;;20.40;99.90;;;;;;4896997;29;20196;-44
2022/08/16 01:12:07;;;;;;;20.20;17.10;;;20.30;99.90;;;;;;4896604;29;20283;-44
2022/08/16 01:14:42;;;;;;;20.10;16.93;;;20.40;99.90;;;;;;4879231;29;20451;-44
2022/08/16 01:17:09;;;;;;;17.87;15.97;;;20.40;99.90;;;;;;4876951;29;20491;-49
2022/08/16 01:19:41;;;;;;;19.10;16.57;;;20.40;99.90;;;;;;4890110;29;20503;-49
2022/08/16 01:22:20;;;;;;;20.77;16.67;;;20.40;99.90;;;;;;4896933;29;20510;-49
2022/08/16 01:24:50;;;;;;;20.83;17.57;;;20.40;99.90;;;;;;4889712;29;20816;-49
2022/08/16 01:27:32;;;;;;;24.40;17.87;;;20.30;99.90;;;;;;4877919;29;21047;-50
2022/08/16 01:30:20;;;;;;;18.83;16.10;;;20.30;99.90;;;;;;4893825;29;20460;-49
2022/08/16 01:32:47;;;;;;;19.53;17.43;;;20.30;99.90;;;;;;4878619;29;20449;-50
2022/08/16 01:35:31;;;;;;;20.90;17.60;;;20.30;99.90;;;;;;4886520;29;20938;-49
2022/08/16 01:38:24;;;;;;;19.00;16.97;;;20.30;99.90;;;;;;4888235;29;20447;-48
2022/08/16 01:40:54;;;;;;;20.23;18.03;;;20.20;99.90;;;;;;4898037;29;20451;-48
2022/08/16 01:43:22;;;;;;;20.60;18.40;;;20.20;99.90;;;;;;4887114;29;20459;-49
2022/08/16 01:45:48;;;;;;;22.17;17.73;;;20.20;99.90;;;;;;4889433;29;20461;-49
2022/08/16 01:48:13;;;;;;;26.73;18.50;;;20.10;99.90;;;;;;4891392;29;20463;-49
2022/08/16 01:50:43;;;;;;;21.33;19.00;;;20.10;99.90;;;;;;4888378;29;20278;-49
2022/08/16 01:53:09;;;;;;;21.93;18.80;;;20.10;99.90;;;;;;4877440;29;20191;-44
2022/08/16 01:55:35;;;;;;;37.90;19.43;;;20.00;1.00;;;;;;4889761;29;20945;-44
2022/08/16 01:58:01;;;;;;;28.03;20.70;;;20.00;1.00;;;;;;4893322;29;20458;-44
2022/08/16 02:00:27;;;;;;;22.90;20.40;;;19.90;1.00;;;;;;4891133;29;20203;-44
2022/08/16 02:02:52;;;;;;;23.80;19.77;;;19.90;1.00;;;;;;4895199;29;20455;-45
2022/08/16 02:05:18;;;;;;;27.03;21.60;;;19.90;1.00;;;;;;4895713;29;20195;-44
2022/08/16 02:07:44;;;;;;;20.63;18.17;;;19.90;1.00;;;;;;4894859;29;20195;-44
2022/08/16 02:10:10;;;;;;;22.87;18.40;;;19.80;1.00;;;;;;4890931;29;20535;-44
2022/08/16 02:12:36;;;;;;;22.33;19.30;;;19.80;1.00;;;;;;4887128;29;20203;-44
2022/08/16 02:15:03;;;;;;;27.43;20.70;;;19.70;1.00;;;;;;4895559;29;20451;-44
2022/08/16 02:17:29;;;;;;;26.13;20.73;;;19.80;98.30;;;;;;4896196;29;20546;-45
2022/08/16 02:19:55;;;;;;;24.67;20.23;;;19.80;90.00;;;;;;4908400;29;20647;-44
2022/08/16 02:22:23;;;;;;;23.60;20.30;;;19.80;91.10;;;;;;4898323;29;20188;-44
2022/08/16 02:24:50;;;;;;;23.53;20.97;;;19.70;71.80;;;;;;4894938;29;20459;-44
2022/08/16 02:27:17;;;;;;;25.70;20.40;;;19.70;99.90;;;;;;4901555;29;20452;-45
2022/08/16 02:29:43;;;;;;;29.20;22.70;;;19.70;99.90;;;;;;4880661;29;20448;-45
2022/08/16 02:32:16;;;;;;;27.27;22.03;;;19.60;99.90;;;;;;4895614;29;20439;-44
2022/08/16 02:34:41;;;;;;;23.33;20.30;;;19.60;99.90;;;;;;4895213;29;20777;-44
2022/08/16 02:37:07;;;;;;;24.63;20.60;;;19.60;99.90;;;;;;4885104;29;20479;-44
2022/08/16 02:39:33;;;;;;;26.90;21.17;;;19.50;1.00;;;;;;4877142;29;20180;-44
2022/08/16 02:41:58;;;;;;;27.10;22.57;;;19.50;1.00;;;;;;4887976;29;20651;-44
2022/08/16 02:44:24;;;;;;;26.50;22.50;;;19.50;99.90;;;;;;4895122;29;20206;-44
2022/08/16 02:46:50;;;;;;;27.97;23.53;;;19.50;99.90;;;;;;4894103;29;20591;-45
2022/08/16 02:49:16;;;;;;;28.93;22.27;;;19.50;99.90;;;;;;4881279;29;20198;-45
2022/08/16 02:51:42;;;;;;;29.70;23.53;;;19.50;99.90;;;;;;4895497;29;20282;-44
2022/08/16 02:54:10;;;;;;;27.13;23.30;;;19.40;99.90;;;;;;4890315;29;20460;-45
2022/08/16 02:56:36;;;;;;;27.00;22.10;;;19.40;1.00;;;;;;4882922;29;21092;-44
2022/08/16 02:59:02;;;;;;;31.17;22.20;;;19.40;1.00;;;;;;4893723;29;20439;-45
2022/08/16 03:01:30;;;;;;;28.67;22.63;;;19.40;97.60;;;;;;4895262;29;20954;-44
2022/08/16 03:03:58;;;;;;;32.20;24.53;;;19.40;35.10;;;;;;4883810;29;20444;-45
2022/08/16 03:06:25;;;;;;;28.23;23.30;;;19.50;58.20;;;;;;4890216;29;20441;-44
2022/08/16 03:08:51;;;;;;;26.40;23.17;;;19.60;99.90;;;;;;4882441;29;20462;-45
2022/08/16 03:11:18;;;;;;;25.97;22.10;;;19.50;49.70;;;;;;4895323;29;20542;-45
2022/08/16 03:13:48;;;;;;;27.30;22.77;;;19.60;99.90;;;;;;4895522;29;20195;-44
2022/08/16 03:16:15;;;;;;;24.80;21.73;;;19.50;1.00;;;;;;4889337;29;20480;-44
2022/08/16 03:18:40;;;;;;;36.30;25.00;;;19.50;99.90;;;;;;4905347;29;20975;-45
2022/08/16 03:21:07;;;;;;;27.90;23.50;;;19.40;99.90;;;;;;4905960;29;20463;-44
2022/08/16 03:23:33;;;;;;;35.17;24.40;;;19.40;99.90;;;;;;4898430;29;20219;-45
2022/08/16 03:25:58;;;;;;;28.87;23.67;;;19.40;1.00;;;;;;4884513;29;20456;-44
2022/08/16 03:28:24;;;;;;;33.97;25.70;;;19.40;1.00;;;;;;4885215;29;20450;-45
2022/08/16 03:30:50;;;;;;;31.63;25.07;;;19.30;1.00;;;;;;4896543;29;20247;-45
2022/08/16 03:33:15;;;;;;;29.73;23.93;;;19.30;99.90;;;;;;4898509;29;20203;-44
2022/08/16 03:35:41;;;;;;;31.10;25.67;;;19.30;83.60;;;;;;4891253;29;20588;-44
2022/08/16 03:38:10;;;;;;;28.80;23.73;;;19.30;99.90;;;;;;4880490;29;20222;-44
2022/08/16 03:40:38;;;;;;;32.80;25.87;;;19.40;99.90;;;;;;4901853;29;20442;-45
2022/08/16 03:43:06;;;;;;;33.93;26.63;;;19.30;99.90;;;;;;4895946;29;20448;-45
2022/08/16 03:45:33;;;;;;;34.20;25.83;;;19.30;99.90;;;;;;4900713;29;20443;-44
2022/08/16 03:48:01;;;;;;;34.87;26.53;;;19.30;1.00;;;;;;4880410;29;20456;-45
2022/08/16 03:50:27;;;;;;;38.37;27.30;;;19.20;22.40;;;;;;4893009;29;21100;-45
2022/08/16 03:52:54;;;;;;;34.83;28.33;;;19.20;1.00;;;;;;4880356;29;20433;-44
2022/08/16 03:55:19;;;;;;;37.87;27.93;;;19.20;99.90;;;;;;4897448;29;20440;-45
2022/08/16 03:57:47;;;;;;;36.07;29.23;;;19.20;99.90;;;;;;4899820;29;20479;-45
2022/08/16 04:00:18;;;;;;;35.23;27.60;;;19.20;1.00;;;;;;4877460;29;20199;-44
2022/08/16 04:02:44;;;;;;;36.80;28.10;;;19.20;99.90;;;;;;4898437;29;20419;-45
2022/08/16 04:05:12;;;;;;;38.40;27.83;;;19.30;8.70;;;;;;4893528;29;21378;-44
2022/08/16 04:07:38;;;;;;;43.73;31.43;;;19.30;1.00;;;;;;4862578;29;20470;-45
2022/08/16 04:10:07;;;;;;;34.50;27.03;;;19.30;1.00;;;;;;4895886;29;20857;-45
2022/08/16 04:12:33;;;;;;;37.23;28.03;;;19.30;99.90;;;;;;4892549;29;20436;-45
2022/08/16 04:15:01;;;;;;;37.33;28.30;;;19.30;99.90;;;;;;4894478;29;20450;-45
2022/08/16 04:17:28;;;;;;;36.80;29.93;;;19.30;99.90;;;;;;4898055;29;20945;-44
2022/08/16 04:19:54;;;;;;;42.50;29.40;;;19.30;1.00;;;;;;4897602;29;20495;-44
2022/08/16 04:22:20;;;;;;;38.17;30.17;;;19.30;1.00;;;;;;4898183;29;20428;-44
2022/08/16 04:24:46;;;;;;;40.00;28.67;;;19.30;1.00;;;;;;4896402;29;20519;-44
2022/08/16 04:27:12;;;;;;;34.63;28.00;;;19.30;99.90;;;;;;4883256;29;20950;-45
2022/08/16 04:29:37;;;;;;;39.70;29.77;;;19.40;99.90;;;;;;4897232;29;20191;-44
2022/08/16 04:32:03;;;;;;;37.43;29.23;;;19.30;99.90;;;;;;4871012;29;20203;-44
2022/08/16 04:34:32;;;;;;;34.47;28.30;;;19.30;99.90;;;;;;4886625;29;20576;-45
2022/08/16 04:36:58;;;;;;;38.83;28.67;;;19.30;99.90;;;;;;4895215;29;20224;-44
2022/08/16 04:39:25;;;;;;;35.33;28.60;;;19.40;99.90;;;;;;4900393;29;20440;-44
2022/08/16 04:41:51;;;;;;;36.83;28.90;;;19.40;1.00;;;;;;4888117;29;20440;-44
2022/08/16 04:44:18;;;;;;;32.07;27.57;;;19.50;82.60;;;;;;4895276;29;20447;-45
2022/08/16 04:46:44;;;;;;;36.13;29.03;;;19.50;99.90;;;;;;4897301;29;20235;-44
2022/08/16 04:49:10;;;;;;;38.60;27.83;;;19.50;1.00;;;;;;4897515;29;20484;-44
2022/08/16 04:51:40;;;;;;;33.23;26.60;;;19.50;1.00;;;;;;4882251;29;20452;-44
2022/08/16 04:54:06;;;;;;;38.70;30.23;;;19.50;99.90;;;;;;4891784;29;20448;-44
2022/08/16 04:56:32;;;;;;;37.40;27.50;;;19.60;99.90;;;;;;4896324;29;20491;-45
2022/08/16 04:58:58;;;;;;;38.10;29.30;;;19.60;1.00;;;;;;4896772;29;20444;-44
2022/08/16 05:01:24;;;;;;;33.33;27.53;;;19.70;99.90;;;;;;4887570;29;20444;-45
2022/08/16 05:03:49;;;;;;;34.00;28.73;;;19.80;44.10;;;;;;4897249;29;20188;-45
2022/08/16 05:06:15;;;;;;;39.27;31.23;;;19.80;1.00;;;;;;4898120;29;20458;-44
2022/08/16 05:08:41;;;;;;;39.63;30.33;;;19.80;1.00;;;;;;4915944;29;20175;-44
2022/08/16 05:11:09;;;;;;;40.40;31.90;;;19.80;99.90;;;;;;4903493;29;20774;-44
2022/08/16 05:13:37;;;;;;;42.10;31.37;;;19.80;99.90;;;;;;4886627;29;20208;-44
2022/08/16 05:16:03;;;;;;;40.83;31.73;;;19.80;99.90;;;;;;4889162;29;20563;-44
2022/08/16 05:18:30;;;;;;;39.10;30.90;;;19.80;99.90;;;;;;4896393;29;20556;-44
2022/08/16 05:20:57;;;;;;;46.70;33.07;;;19.80;99.90;;;;;;4896240;29;20934;-45
2022/08/16 05:23:22;;;;;;;48.07;32.87;;;19.80;99.90;;;;;;4868492;29;20947;-44
2022/08/16 05:25:48;;;;;;;41.73;31.70;;;19.80;99.90;;;;;;4894325;29;20452;-45
2022/08/16 05:28:14;;;;;;;45.50;32.63;;;19.80;99.90;;;;;;4879728;29;20203;-44
2022/08/16 05:30:40;;;;;;;42.67;32.40;;;19.90;99.90;;;;;;4899811;29;20192;-45
2022/08/16 05:33:05;;;;;;;40.90;31.60;;;19.90;99.90;;;;;;4896427;29;20448;-44
2022/08/16 05:35:31;;;;;;;54.73;32.67;;;20.00;99.90;;;;;;4899478;29;20713;-44
2022/08/16 05:37:57;;;;;;;41.80;30.60;;;20.00;51.90;;;;;;4895959;29;20187;-44
2022/08/16 05:40:23;;;;;;;40.83;30.83;;;20.10;43.00;;;;;;4896733;29;20265;-44
2022/08/16 05:42:48;;;;;;;38.33;30.93;;;20.00;1.00;;;;;;4874485;29;20199;-44
2022/08/16 05:45:14;;;;;;;34.90;29.67;;;20.00;1.00;;;;;;4896014;29;20535;-44
2022/08/16 05:47:40;;;;;;;38.53;28.40;;;20.00;1.00;;;;;;4896276;29;20186;-44
2022/08/16 05:50:06;;;;;;;37.00;30.53;;;20.10;1.00;;;;;;4898668;29;20307;-45
2022/08/16 05:52:32;;;;;;;39.63;30.27;;;20.10;1.00;;;;;;4880018;29;20188;-44
2022/08/16 05:54:58;;;;;;;36.10;28.90;;;20.20;1.00;;;;;;4891334;29;20561;-44
2022/08/16 05:57:24;;;;;;;41.00;29.80;;;20.20;1.00;;;;;;4893284;29;20225;-44
2022/08/16 05:59:49;;;;;;;42.73;30.17;;;20.30;99.90;;;;;;4890765;29;20573;-44
2022/08/16 06:02:16;;;;;;;39.80;29.30;;;20.30;99.90;;;;;;4885692;29;20443;-45
2022/08/16 06:04:42;;;;;;;36.57;26.37;;;20.40;99.90;;;;;;4896348;29;20168;-44
2022/08/16 06:07:08;;;;;;;35.33;25.83;;;20.50;99.90;;;;;;4894369;29;20455;-45
2022/08/16 06:09:34;;;;;;;31.60;25.97;;;20.60;99.90;;;;;;4893390;29;20969;-44
2022/08/16 06:12:00;;;;;;;32.10;25.80;;;20.60;99.90;;;;;;4893057;29;20207;-44
2022/08/16 06:14:27;;;;;;;32.07;25.40;;;20.70;85.90;;;;;;4895895;29;20234;-44
2022/08/16 06:16:53;;;;;;;34.17;24.27;;;20.70;1.00;;;;;;4895769;29;21046;-45
2022/08/16 06:19:19;;;;;;;29.87;25.13;;;20.80;1.00;;;;;;4895489;29;20567;-44
2022/08/16 06:21:45;;;;;;;31.30;26.00;;;20.80;1.00;;;;;;4896518;29;20196;-44
2022/08/16 06:24:11;;;;;;;33.13;25.10;;;20.90;1.00;;;;;;4893893;29;20726;-47
2022/08/16 06:26:36;;;;;;;37.20;24.80;;;20.90;1.00;;;;;;4872463;29;20510;-44
2022/08/16 06:29:02;;;;;;;31.70;25.17;;;21.00;1.00;;;;;;4894275;29;20299;-45
2022/08/16 06:31:28;;;;;;;29.60;25.20;;;21.00;1.00;;;;;;4880553;29;20917;-44
2022/08/16 06:33:54;;;;;;;34.07;25.50;;;21.10;1.00;;;;;;4870706;29;20503;-44
2022/08/16 06:36:19;;;;;;;31.50;24.57;;;21.20;1.00;;;;;;4877027;29;20235;-44
2022/08/16 06:38:46;;;;;;;25.87;23.00;;;21.20;1.00;;;;;;4878260;29;20196;-44
2022/08/16 06:41:12;;;;;;;30.53;23.03;;;21.30;1.00;;;;;;4881825;29;20192;-44
2022/08/16 06:43:38;;;;;;;26.00;21.43;;;21.40;1.00;;;;;;4895354;29;20439;-44
2022/08/16 06:46:08;;;;;;;25.50;21.10;;;21.50;1.00;;;;;;4897239;29;20521;-44
2022/08/16 06:48:34;;;;;;;31.57;21.70;;;21.70;1.00;;;;;;4884109;29;20456;-44
2022/08/16 06:51:03;;;;;;;24.40;20.10;;;22.00;1.00;;;;;;4887723;29;20601;-45
2022/08/16 06:53:32;;;;;;;25.83;20.80;;;22.10;1.00;;;;;;4899344;29;20179;-45
2022/08/16 06:55:58;;;;;;;23.73;20.03;;;22.20;1.00;;;;;;4890948;29;20483;-44
2022/08/16 06:58:24;;;;;;;26.37;19.80;;;22.20;99.90;;;;;;4899486;29;20774;-45
2022/08/16 07:00:50;;;;;;;24.33;18.60;;;22.30;99.90;;;;;;4893649;29;20504;-46
2022/08/16 07:03:17;;;;;;;33.93;19.80;;;22.70;99.90;;;;;;4885798;29;20452;-45
2022/08/16 07:05:42;;;;;;;26.03;19.60;;;23.20;99.90;;;;;;4916244;29;20180;-46
2022/08/16 07:08:10;;;;;;;22.70;18.27;;;23.70;99.90;;;;;;4912537;29;20459;-46
2022/08/16 07:10:36;;;;;;;23.53;17.00;;;24.10;99.90;;;;;;4889022;29;20203;-44
2022/08/16 07:13:04;;;;;;;22.63;16.87;;;24.40;99.90;;;;;;4896926;29;20883;-45
2022/08/16 07:15:30;;;;;;;21.43;15.67;;;24.80;99.90;;;;;;4896118;29;20304;-51
2022/08/16 07:17:58;;;;;;;19.67;15.67;;;25.20;99.90;;;;;;4895762;29;20455;-49
2022/08/16 07:20:25;;;;;;;18.60;13.80;;;25.20;99.90;;;;;;4898838;29;20503;-50
2022/08/16 07:22:51;;;;;;;18.83;14.40;;;25.20;99.90;;;;;;4895438;29;20452;-49
2022/08/16 07:25:17;;;;;;;18.40;14.33;;;25.20;99.90;;;;;;4899104;29;20471;-50
2022/08/16 07:27:43;;;;;;;18.67;14.13;;;25.40;99.90;;;;;;4887732;29;20471;-50
2022/08/16 07:30:12;;;;;;;16.30;14.07;;;25.40;99.90;;;;;;4881883;29;20194;-49
2022/08/16 07:32:37;;;;;;;16.77;13.20;;;25.60;99.90;;;;;;4899006;29;20225;-50
2022/08/16 07:35:04;;;;;;;21.20;13.43;;;25.90;99.90;;;;;;4899185;29;20448;-50
2022/08/16 07:37:30;;;;;;;18.20;12.90;;;26.00;99.90;;;;;;4894609;29;20702;-49
2022/08/16 07:39:56;;;;;;;20.70;14.20;;;25.90;99.90;;;;;;4897590;29;20452;-49
2022/08/16 07:42:23;;;;;;;15.53;13.87;;;25.80;99.90;;;;;;4899078;29;20215;-49
2022/08/16 07:44:48;;;;;;;17.73;13.43;;;25.50;99.90;;;;;;4898427;29;20203;-50
2022/08/16 07:47:14;;;;;;;13.90;11.90;;;25.30;99.90;;;;;;4884056;29;20448;-49
2022/08/16 07:49:40;;;;;;;15.33;12.30;;;25.50;99.90;;;;;;4863144;29;20224;-49
2022/08/16 07:52:05;;;;;;;17.97;12.40;;;25.90;99.90;;;;;;4885774;29;20202;-50
2022/08/16 07:54:31;;;;;;;17.63;12.23;;;26.70;99.90;;;;;;4893343;29;20234;-49
2022/08/16 07:56:56;;;;;;;13.70;11.83;;;27.30;99.90;;;;;;4897099;29;20771;-50
2022/08/16 07:59:23;;;;;;;16.40;11.77;;;27.80;99.90;;;;;;4890273;29;20191;-51
2022/08/16 08:01:51;;;;;;;13.70;10.20;;;27.90;99.90;;;;;;4887876;29;20199;-50
2022/08/16 08:04:17;;;;;;;12.10;10.47;;;28.10;99.90;;;;;;4885229;29;20527;-50
2022/08/16 08:06:44;;;;;;;17.70;12.37;;;28.60;99.90;;;;;;4889808;29;20463;-50
2022/08/16 08:09:09;;;;;;;15.37;11.10;;;28.50;99.90;;;;;;4890257;29;20969;-49
2022/08/16 08:11:35;;;;;;;12.63;10.20;;;28.60;99.90;;;;;;4869256;29;20472;-50
2022/08/16 08:14:01;;;;;;;16.53;11.20;;;28.70;99.90;;;;;;4885878;29;20310;-50
2022/08/16 08:16:27;;;;;;;12.57;9.80;;;28.70;99.90;;;;;;4885941;29;20225;-50
2022/08/16 08:18:56;;;;;;;14.27;10.10;;;28.90;99.90;;;;;;4883041;29;20979;-51
2022/08/16 08:21:24;;;;;;;14.90;11.20;;;28.90;99.90;;;;;;4896015;29;20900;-50
2022/08/16 08:23:51;;;;;;;13.07;9.37;;;28.70;99.90;;;;;;4885466;29;20506;-49
2022/08/16 08:26:18;;;;;;;12.60;10.17;;;28.70;99.90;;;;;;4897637;29;20428;-51
2022/08/16 08:28:43;;;;;;;12.73;9.67;;;28.80;99.90;;;;;;4897426;29;20444;-50
2022/08/16 08:31:09;;;;;;;13.67;10.43;;;29.10;99.90;;;;;;4897577;29;20778;-49
2022/08/16 08:33:36;;;;;;;16.10;9.60;;;29.40;99.90;;;;;;4894915;29;20674;-50
2022/08/16 08:36:06;;;;;;;13.40;10.43;;;29.60;99.90;;;;;;4896238;29;20225;-49
2022/08/16 08:38:33;;;;;;;11.50;9.40;;;29.60;99.90;;;;;;4897541;29;20433;-50
2022/08/16 08:40:59;;;;;;;10.97;9.20;;;29.40;99.90;;;;;;4886784;29;20449;-49
2022/08/16 08:43:25;;;;;;;10.40;9.20;;;29.30;99.90;;;;;;4878714;29;20485;-45
2022/08/16 08:45:54;;;;;;;15.57;10.30;;;29.40;99.90;;;;;;4886437;29;20243;-45
2022/08/16 08:48:20;;;;;;;12.13;10.13;;;29.50;99.90;;;;;;4887667;29;20294;-46
2022/08/16 08:50:46;;;;;;;13.90;10.43;;;29.70;99.90;;;;;;4878528;29;20453;-45
2022/08/16 08:53:12;;;;;;;12.00;9.43;;;29.90;99.90;;;;;;4886261;29;20455;-45
2022/08/16 08:55:38;;;;;;;10.67;8.60;;;29.50;99.90;;;;;;4897760;29;20502;-45
2022/08/16 08:58:04;;;;;;;12.27;9.87;;;29.40;99.90;;;;;;4892475;29;20203;-45
2022/08/16 09:00:29;;;;;;;14.23;9.93;;;29.80;99.90;;;;;;4901373;29;20194;-45
2022/08/16 09:02:56;;;;;;;10.93;9.33;;;30.10;99.90;;;;;;4916026;29;20227;-45
2022/08/16 09:05:26;;;;;;;12.90;9.13;;;30.40;99.90;;;;;;4899394;29;20191;-45
2022/08/16 09:07:54;;;;;;;10.40;8.73;;;30.70;99.90;;;;;;4883502;29;20495;-45
2022/08/16 09:10:20;;;;;;;10.10;8.30;;;30.50;99.90;;;;;;4878127;29;20456;-45
2022/08/16 09:12:46;;;;;;;10.57;8.90;;;30.40;99.90;;;;;;4877419;29;20415;-45
2022/08/16 09:15:14;;;;;;;14.70;10.70;;;30.50;99.90;;;;;;4880304;29;20912;-45
2022/08/16 09:17:41;;;;;;;10.50;8.93;;;30.40;99.90;;;;;;4878255;29;20220;-45
2022/08/16 09:20:09;;;;;;;10.30;9.30;;;30.60;99.90;;;;;;4882851;29;20490;-45
2022/08/16 09:22:36;;;;;;;14.23;9.20;;;30.80;99.90;;;;;;4896399;29;20463;-50
2022/08/16 09:25:03;;;;;;;12.50;9.73;;;30.80;99.90;;;;;;4896047;29;20507;-51
2022/08/16 09:27:28;;;;;;;9.63;8.40;;;30.70;99.90;;;;;;4886386;29;20485;-51
2022/08/16 09:29:54;;;;;;;10.73;7.90;;;30.60;99.90;;;;;;4889908;29;20455;-50
2022/08/16 09:32:20;;;;;;;7.80;7.00;;;30.40;99.90;;;;;;4884299;29;20324;-51
2022/08/16 09:34:46;;;;;;;8.43;7.30;;;30.20;99.90;;;;;;4877470;29;20268;-49
2022/08/16 09:37:12;;;;;;;8.80;6.47;;;30.20;99.90;;;;;;4879239;29;20214;-51
2022/08/16 09:39:37;;;;;;;8.83;7.00;;;30.30;99.90;;;;;;4892911;29;20195;-51
2022/08/16 09:42:03;;;;;;;7.60;6.77;;;30.60;99.90;;;;;;4863302;29;20448;-50
2022/08/16 09:44:29;;;;;;;10.47;7.40;;;30.70;99.90;;;;;;4889875;29;20204;-50
2022/08/16 09:46:56;;;;;;;8.77;7.87;;;30.70;99.90;;;;;;4893647;29;20207;-50
2022/08/16 09:49:22;;;;;;;8.50;7.57;;;30.80;99.90;;;;;;4891409;29;20188;-50
2022/08/16 09:51:53;;;;;;;7.90;6.70;;;30.70;99.90;;;;;;4906054;29;20411;-50
2022/08/16 09:54:23;;;;;;;7.93;6.93;;;30.60;99.90;;;;;;4915373;29;20395;-49
2022/08/16 09:56:50;;;;;;;9.43;7.47;;;30.60;99.90;;;;;;4897486;29;20936;-50
2022/08/16 09:59:16;;;;;;;10.23;8.93;;;30.60;99.90;;;;;;4895040;29;20447;-50
2022/08/16 10:01:43;;;;;;;9.63;8.63;;;30.50;99.90;;;;;;4896092;29;20431;-50
2022/08/16 10:04:10;;;;;;;10.50;8.57;;;30.40;99.90;;;;;;4895987;29;20445;-49
2022/08/16 10:06:36;;;;;;;10.10;8.93;;;30.30;99.90;;;;;;4896025;29;20423;-53
2022/08/16 10:09:08;;;;;;;9.03;7.83;;;30.50;99.90;;;;;;4913327;29;20503;-49
2022/08/16 10:14:18;;;;;;;13.53;10.37;;;30.80;99.90;;;;;;4896152;29;20435;-50
2022/08/16 10:16:44;;;;;;;11.20;8.53;;;31.10;99.90;;;;;;4888774;29;20480;-50
2022/08/16 10:19:11;;;;;;;9.80;7.70;;;31.20;99.90;;;;;;4877305;29;20240;-50
2022/08/16 10:21:38;;;;;;;9.83;8.90;;;31.40;99.90;;;;;;4877036;29;20173;-49
2022/08/16 10:24:04;;;;;;;9.23;7.63;;;31.30;99.90;;;;;;4877276;29;20432;-50
2022/08/16 10:26:32;;;;;;;11.10;8.77;;;31.40;99.90;;;;;;4877095;29;20443;-52
2022/08/16 10:28:58;;;;;;;10.83;8.40;;;31.70;99.90;;;;;;4877160;29;20421;-51
2022/08/16 10:31:24;;;;;;;11.90;8.77;;;32.00;99.90;;;;;;4877194;29;20433;-51
2022/08/16 10:33:49;;;;;;;8.53;7.63;;;31.90;99.90;;;;;;4884663;29;20219;-49
2022/08/16 10:36:15;;;;;;;10.00;7.67;;;32.30;99.90;;;;;;4895355;29;20500;-50
2022/08/16 10:38:41;;;;;;;9.27;8.40;;;32.50;99.90;;;;;;4895725;29;20597;-49
2022/08/16 10:41:09;;;;;;;10.20;9.17;;;32.30;99.90;;;;;;4895719;29;20231;-50
2022/08/16 10:43:36;;;;;;;10.67;9.10;;;32.40;99.90;;;;;;4895671;29;20428;-53
2022/08/16 10:46:03;;;;;;;8.60;7.77;;;32.60;99.90;;;;;;4895548;29;20412;-52
2022/08/16 10:48:29;;;;;;;9.80;8.27;;;32.30;99.90;;;;;;4895733;29;20467;-48
2022/08/16 10:50:59;;;;;;;11.60;8.53;;;32.40;99.90;;;;;;4895505;29;21241;-50
2022/08/16 10:53:30;;;;;;;9.90;7.73;;;32.10;99.90;;;;;;4895461;29;20961;-51
2022/08/16 10:55:58;;;;;;;9.80;8.80;;;31.90;99.90;;;;;;4895528;29;20475;-51
2022/08/16 10:58:25;;;;;;;10.53;8.20;;;32.00;99.90;;;;;;4894455;29;20439;-50
2022/08/16 11:00:52;;;;;;;9.70;8.70;;;31.70;99.90;;;;;;4895544;29;20507;-50
2022/08/16 11:03:18;;;;;;;9.50;8.53;;;31.00;99.90;;;;;;4900641;29;20785;-51
2022/08/16 11:05:44;;;;;;;10.47;8.10;;;30.60;99.90;;;;;;4913816;29;20443;-50
2022/08/16 11:08:10;;;;;;;13.27;8.40;;;30.30;99.90;;;;;;4913991;29;20439;-50
2022/08/16 11:10:39;;;;;;;10.83;8.33;;;30.00;99.90;;;;;;4914108;29;20195;-49
2022/08/16 11:13:07;;;;;;;9.63;7.80;;;29.60;99.90;;;;;;4914232;29;20423;-50
2022/08/16 11:15:35;;;;;;;11.17;8.40;;;29.20;99.90;;;;;;4914194;29;20482;-49
2022/08/16 11:18:07;;;;;;;8.43;7.43;;;28.80;99.90;;;;;;4914436;29;20462;-49
2022/08/16 11:20:33;;;;;;;12.33;7.97;;;28.60;99.90;;;;;;4896591;29;20539;-50
2022/08/16 11:22:59;;;;;;;9.30;7.40;;;28.70;99.90;;;;;;4885196;29;20858;-53
2022/08/16 11:25:27;;;;;;;8.80;7.57;;;28.80;99.90;;;;;;4914421;29;20175;-49
2022/08/16 11:27:55;;;;;;;9.27;7.73;;;28.90;99.90;;;;;;4914960;29;20461;-50
2022/08/16 11:30:22;;;;;;;8.73;7.83;;;29.20;99.90;;;;;;4914300;29;20404;-49
2022/08/16 11:32:48;;;;;;;8.80;7.57;;;29.20;99.90;;;;;;4914192;29;20482;-50
2022/08/16 11:35:17;;;;;;;9.23;8.30;;;29.00;99.90;;;;;;4903492;29;20420;-50
2022/08/16 11:37:47;;;;;;;9.47;8.57;;;28.60;99.90;;;;;;4879603;29;20291;-53
2022/08/16 11:40:14;;;;;;;8.70;7.70;;;28.30;99.90;;;;;;4897998;29;20455;-49
2022/08/16 11:42:39;;;;;;;13.87;8.70;;;28.40;99.90;;;;;;4905706;29;21348;-50
2022/08/16 11:45:05;;;;;;;11.00;7.93;;;29.00;99.90;;;;;;4892992;29;20439;-50
2022/08/16 11:47:31;;;;;;;8.57;7.40;;;29.60;99.90;;;;;;4898433;29;20187;-51
2022/08/16 11:49:57;;;;;;;7.90;7.20;;;29.80;99.90;;;;;;4880400;29;20946;-50
2022/08/16 11:52:22;;;;;;;8.93;7.60;;;29.70;99.90;;;;;;4891757;29;20199;-49
2022/08/16 11:54:49;;;;;;;9.20;8.30;;;29.30;99.90;;;;;;4883763;29;20238;-50
2022/08/16 11:57:15;;;;;;;8.93;7.97;;;28.90;99.90;;;;;;4897955;29;20215;-48
2022/08/16 11:59:40;;;;;;;10.00;8.80;;;28.70;99.90;;;;;;4900545;29;20452;-50
2022/08/16 12:02:07;;;;;;;11.30;8.77;;;28.50;99.90;;;;;;4896691;29;20938;-50
2022/08/16 12:04:33;;;;;;;10.63;9.63;;;28.50;99.90;;;;;;4896801;29;20179;-50
2022/08/16 12:07:04;;;;;;;13.03;10.00;;;28.60;99.90;;;;;;4897589;29;20443;-50
2022/08/16 12:09:30;;;;;;;10.70;9.30;;;28.70;99.90;;;;;;4916665;29;20199;-50
2022/08/16 12:11:57;;;;;;;13.53;10.20;;;28.70;99.90;;;;;;4911765;29;20511;-50
2022/08/16 12:14:22;;;;;;;13.17;9.63;;;28.60;99.90;;;;;;4897743;29;20191;-50
2022/08/16 12:16:49;;;;;;;15.03;10.10;;;28.60;99.90;;;;;;4897050;29;20959;-49
2022/08/16 12:19:14;;;;;;;10.37;9.37;;;28.70;99.90;;;;;;4897393;29;20358;-50
2022/08/16 12:21:41;;;;;;;23.90;9.77;;;29.40;99.90;;;;;;4897608;29;20432;-50
2022/08/16 12:24:08;;;;;;;9.57;8.77;;;30.00;99.90;;;;;;4896712;29;20195;-50
2022/08/16 12:26:34;;;;;;;8.60;7.80;;;30.30;99.90;;;;;;4897380;29;20539;-51
2022/08/16 12:29:02;;;;;;;13.67;8.93;;;31.20;99.90;;;;;;4880031;29;20535;-45
2022/08/16 12:31:28;;;;;;;10.30;9.30;;;31.80;99.90;;;;;;4897244;29;20180;-45
2022/08/16 12:33:55;;;;;;;11.53;9.30;;;31.70;99.90;;;;;;4897102;29;20432;-51